createdAt,value
2018-03-16T00:00:34.951Z,5.80
2018-03-16T00:03:02.451Z,5.80
2018-03-16T00:05:29.973Z,5.80
2018-03-16T00:07:58.215Z,5.80
2018-03-16T00:10:25.703Z,5.80
2018-03-16T00:12:53.959Z,5.80
2018-03-16T00:15:21.443Z,5.80
2018-03-16T00:17:49.686Z,5.80
2018-03-16T00:20:17.158Z,5.80
2018-03-16T00:22:44.646Z,5.80
2018-03-16T00:25:12.163Z,5.80
2018-03-16T00:27:39.630Z,5.80
2018-03-16T00:30:07.127Z,5.80
2018-03-16T00:32:34.658Z,5.70
2018-03-16T00:35:02.908Z,5.60
2018-03-16T00:37:30.382Z,5.50
2018-03-16T00:39:57.856Z,5.50
2018-03-16T00:42:26.109Z,5.40
2018-03-16T00:44:53.613Z,5.40
2018-03-16T00:47:21.116Z,5.40
2018-03-16T00:49:48.578Z,5.40
2018-03-16T00:52:16.064Z,5.40
2018-03-16T00:54:44.341Z,5.50
2018-03-16T00:57:12.610Z,5.50
2018-03-16T00:59:40.115Z,5.50
2018-03-16T01:02:07.619Z,5.50
2018-03-16T01:04:35.093Z,5.50
2018-03-16T01:07:03.382Z,5.50
2018-03-16T01:09:31.631Z,5.50
2018-03-16T01:11:59.211Z,5.50
2018-03-16T01:14:27.480Z,5.50
2018-03-16T01:16:54.957Z,5.50
2018-03-16T01:19:22.456Z,5.50
2018-03-16T01:21:49.957Z,5.60
2018-03-16T01:24:17.782Z,5.60
2018-03-16T01:26:45.266Z,5.60
2018-03-16T01:29:12.742Z,5.60
2018-03-16T01:31:40.986Z,5.60
2018-03-16T01:34:08.475Z,5.60
2018-03-16T01:36:36.724Z,5.50
2018-03-16T01:39:04.209Z,5.40
2018-03-16T01:41:31.679Z,5.30
2018-03-16T01:43:59.944Z,5.20
2018-03-16T01:46:27.427Z,5.10
2018-03-16T01:48:55.689Z,5.00
2018-03-16T01:51:23.923Z,5.10
2018-03-16T01:53:51.406Z,5.00
2018-03-16T01:56:18.914Z,5.00
2018-03-16T01:58:46.456Z,4.90
2018-03-16T02:01:14.813Z,4.80
2018-03-16T02:03:42.294Z,4.80
2018-03-16T02:06:09.771Z,4.70
2018-03-16T02:08:37.265Z,4.80
2018-03-16T02:11:04.741Z,4.80
2018-03-16T02:13:32.218Z,4.70
2018-03-16T02:16:00.473Z,4.60
2018-03-16T02:18:27.971Z,4.60
2018-03-16T02:20:55.442Z,4.60
2018-03-16T02:23:22.950Z,4.60
2018-03-16T02:25:50.434Z,4.60
2018-03-16T02:28:18.668Z,4.70
2018-03-16T02:30:46.129Z,4.70
2018-03-16T02:33:13.649Z,4.70
2018-03-16T02:35:41.124Z,4.70
2018-03-16T02:38:08.635Z,4.60
2018-03-16T02:40:36.115Z,4.60
2018-03-16T02:43:04.405Z,4.40
2018-03-16T02:45:31.871Z,4.40
2018-03-16T02:47:59.436Z,4.40
2018-03-16T02:50:26.901Z,4.60
2018-03-16T02:52:54.378Z,4.80
2018-03-16T02:55:21.851Z,4.90
2018-03-16T02:57:49.373Z,4.80
2018-03-16T03:00:16.839Z,4.70
2018-03-16T03:02:44.350Z,4.50
2018-03-16T03:05:12.595Z,4.30
2018-03-16T03:07:40.098Z,4.30
2018-03-16T03:10:08.358Z,4.20
2018-03-16T03:12:35.833Z,4.20
2018-03-16T03:15:04.085Z,4.30
2018-03-16T03:17:31.575Z,4.30
2018-03-16T03:19:59.814Z,4.30
2018-03-16T03:22:27.294Z,4.30
2018-03-16T03:24:55.567Z,4.20
2018-03-16T03:27:23.039Z,4.20
2018-03-16T03:29:51.278Z,4.10
2018-03-16T03:32:18.751Z,4.10
2018-03-16T03:34:46.259Z,4.10
2018-03-16T03:37:13.835Z,4.20
2018-03-16T03:39:42.031Z,4.30
2018-03-16T03:42:09.519Z,4.30
2018-03-16T03:44:37.764Z,4.30
2018-03-16T03:47:05.216Z,4.30
2018-03-16T03:49:32.703Z,4.20
2018-03-16T03:52:00.202Z,4.10
2018-03-16T03:54:27.686Z,4.00
2018-03-16T03:56:55.155Z,3.90
2018-03-16T03:59:22.711Z,4.00
2018-03-16T04:01:50.202Z,3.90
2018-03-16T04:04:18.069Z,3.80
2018-03-16T04:06:45.546Z,3.70
2018-03-16T04:09:13.827Z,3.50
2018-03-16T04:11:42.054Z,3.40
2018-03-16T04:14:09.545Z,3.40
2018-03-16T04:16:37.783Z,3.50
2018-03-16T04:19:05.272Z,3.50
2018-03-16T04:21:33.611Z,3.50
2018-03-16T04:24:01.096Z,3.50
2018-03-16T04:26:28.623Z,3.50
2018-03-16T04:28:56.087Z,3.30
2018-03-16T04:31:23.590Z,3.20
2018-03-16T04:33:51.064Z,3.10
2018-03-16T04:36:19.313Z,3.00
2018-03-16T04:38:46.974Z,3.00
2018-03-16T04:41:14.454Z,3.00
2018-03-16T04:43:42.703Z,2.90
2018-03-16T04:46:10.178Z,2.90
2018-03-16T04:48:38.444Z,2.90
2018-03-16T04:51:06.234Z,2.80
2018-03-16T04:53:33.734Z,2.80
2018-03-16T04:56:01.279Z,2.80
2018-03-16T04:58:28.806Z,2.80
2018-03-16T05:00:57.074Z,2.90
2018-03-16T05:03:25.319Z,2.90
2018-03-16T05:05:52.806Z,2.90
2018-03-16T05:08:20.282Z,3.00
2018-03-16T05:10:48.537Z,3.10
2018-03-16T05:13:16.025Z,3.00
2018-03-16T05:15:43.574Z,3.10
2018-03-16T05:18:11.060Z,3.10
2018-03-16T05:20:38.538Z,3.10
2018-03-16T05:23:06.012Z,3.20
2018-03-16T05:25:33.501Z,3.30
2018-03-16T05:28:00.979Z,3.30
2018-03-16T05:30:29.252Z,3.40
2018-03-16T05:32:57.492Z,3.50
2018-03-16T05:35:24.982Z,3.40
2018-03-16T05:37:53.238Z,3.60
2018-03-16T05:40:20.714Z,3.60
2018-03-16T05:42:49.019Z,3.90
2018-03-16T05:45:16.501Z,3.90
2018-03-16T05:47:44.027Z,3.90
2018-03-16T05:50:11.511Z,4.00
2018-03-16T05:52:39.063Z,4.00
2018-03-16T05:55:06.586Z,4.00
2018-03-16T05:57:34.834Z,4.10
2018-03-16T06:00:02.305Z,4.10
2018-03-16T06:02:29.819Z,4.20
2018-03-16T06:04:57.351Z,4.20
2018-03-16T06:07:25.587Z,4.20
2018-03-16T06:09:53.066Z,4.20
2018-03-16T06:12:20.555Z,4.20
2018-03-16T06:14:48.040Z,4.30
2018-03-16T06:17:15.525Z,4.30
2018-03-16T06:19:42.997Z,4.30
2018-03-16T06:22:10.459Z,4.40
2018-03-16T06:24:38.001Z,4.40
2018-03-16T06:27:05.470Z,4.50
2018-03-16T06:29:32.978Z,4.50
2018-03-16T06:32:00.439Z,4.60
2018-03-16T06:34:27.917Z,4.60
2018-03-16T06:36:55.426Z,4.60
2018-03-16T06:39:23.713Z,4.70
2018-03-16T06:41:51.942Z,4.80
2018-03-16T06:44:19.433Z,4.70
2018-03-16T06:46:46.896Z,4.80
2018-03-16T06:49:15.150Z,4.90
2018-03-16T06:51:42.620Z,4.90
2018-03-16T06:54:10.131Z,5.00
2018-03-16T06:56:37.629Z,5.00
2018-03-16T06:59:05.108Z,5.10
2018-03-16T07:01:33.358Z,5.20
2018-03-16T07:04:00.830Z,5.20
2018-03-16T07:06:28.346Z,5.20
2018-03-16T07:08:55.841Z,5.20
2018-03-16T07:11:23.341Z,5.30
2018-03-16T07:13:51.596Z,5.40
2018-03-16T07:16:19.074Z,5.40
2018-03-16T07:18:47.323Z,5.50
2018-03-16T07:21:14.834Z,5.50
2018-03-16T07:23:42.302Z,5.60
2018-03-16T07:26:09.790Z,5.70
2018-03-16T07:28:37.263Z,5.70
2018-03-16T07:31:04.744Z,5.80
2018-03-16T07:33:32.215Z,5.90
2018-03-16T07:35:59.696Z,5.80
2018-03-16T07:38:27.159Z,5.80
2018-03-16T07:40:54.659Z,5.90
2018-03-16T07:43:26.930Z,5.90
2018-03-16T07:46:00.353Z,5.90
2018-03-16T07:48:28.615Z,6.00
2018-03-16T07:50:56.867Z,6.10
2018-03-16T07:53:24.343Z,6.10
2018-03-16T07:55:51.828Z,6.10
2018-03-16T07:58:19.325Z,6.20
2018-03-16T08:00:46.804Z,6.20
2018-03-16T08:03:15.070Z,6.30
2018-03-16T08:05:42.558Z,6.30
2018-03-16T08:08:10.857Z,6.40
2018-03-16T08:10:38.348Z,6.30
2018-03-16T08:13:05.828Z,6.40
2018-03-16T08:15:33.312Z,6.40
2018-03-16T08:18:01.549Z,6.40
2018-03-16T08:20:29.740Z,6.40
2018-03-16T08:22:58.214Z,6.60
2018-03-16T08:25:25.980Z,6.50
2018-03-16T08:27:54.414Z,6.70
2018-03-16T08:30:21.999Z,6.70
2018-03-16T08:32:49.666Z,6.70
2018-03-16T08:38:09.837Z,6.80
2018-03-16T08:40:38.067Z,7.00
2018-03-16T08:43:10.319Z,7.00
2018-03-16T08:45:37.824Z,7.00
2018-03-16T08:48:05.436Z,7.00
2018-03-16T08:50:32.947Z,7.10
2018-03-16T08:53:00.429Z,7.20
2018-03-16T08:55:27.904Z,7.20
2018-03-16T08:57:55.515Z,7.30
2018-03-16T09:00:22.989Z,7.30
2018-03-16T09:02:50.556Z,7.40
2018-03-16T09:05:18.008Z,7.40
2018-03-16T09:07:46.111Z,7.50
2018-03-16T09:10:13.813Z,7.70
2018-03-16T09:12:41.369Z,7.90
2018-03-16T09:15:08.814Z,8.10
2018-03-16T09:17:37.074Z,8.20
2018-03-16T09:20:05.504Z,8.40
2018-03-16T09:22:33.010Z,8.40
2018-03-16T09:25:00.618Z,8.50
2018-03-16T09:27:28.142Z,8.60
2018-03-16T09:29:55.861Z,8.70
2018-03-16T09:32:23.553Z,8.70
2018-03-16T09:34:52.268Z,8.70
2018-03-16T09:37:19.770Z,8.60
2018-03-16T09:39:47.237Z,8.90
2018-03-16T09:42:17.203Z,8.90
2018-03-16T09:44:45.014Z,8.90
2018-03-16T09:47:13.654Z,8.90
2018-03-16T09:49:41.144Z,8.90
2018-03-16T09:52:09.026Z,9.00
2018-03-16T09:54:48.541Z,8.90
2018-03-16T09:57:16.107Z,8.80
2018-03-16T09:59:43.598Z,8.90
2018-03-16T10:02:11.129Z,8.90
2018-03-16T10:04:39.316Z,9.10
2018-03-16T10:07:06.845Z,9.10
2018-03-16T10:09:34.343Z,9.10
2018-03-16T10:12:01.877Z,9.20
2018-03-16T10:14:29.345Z,9.30
2018-03-16T10:16:56.835Z,9.00
2018-03-16T10:19:24.337Z,9.10
2018-03-16T10:21:52.671Z,9.20
2018-03-16T10:24:21.646Z,9.20
2018-03-16T10:26:49.896Z,9.50
2018-03-16T10:29:18.781Z,9.60
2018-03-16T10:31:46.396Z,9.50
2018-03-16T10:34:13.968Z,9.80
2018-03-16T10:36:41.747Z,9.80
2018-03-16T10:39:09.252Z,10.00
2018-03-16T10:41:39.260Z,10.10
2018-03-16T10:44:06.923Z,10.00
2018-03-16T10:46:34.410Z,10.20
2018-03-16T10:49:01.954Z,10.40
2018-03-16T10:51:29.492Z,10.40
2018-03-16T10:53:56.978Z,10.40
2018-03-16T10:56:24.520Z,10.40
2018-03-16T10:58:52.420Z,10.40
2018-03-16T11:04:14.434Z,10.20
2018-03-16T11:06:47.018Z,10.00
2018-03-16T11:09:14.985Z,10.00
2018-03-16T11:11:42.486Z,9.90
2018-03-16T11:14:09.997Z,9.70
2018-03-16T11:16:37.662Z,9.60
2018-03-16T11:19:05.164Z,9.50
2018-03-16T11:21:32.724Z,9.70
2018-03-16T11:24:01.094Z,9.70
2018-03-16T11:26:29.342Z,9.60
2018-03-16T11:28:57.583Z,9.60
2018-03-16T11:31:25.322Z,9.60
2018-03-16T11:33:54.394Z,9.70
2018-03-16T11:36:24.047Z,9.80
2018-03-16T11:38:51.792Z,9.80
2018-03-16T11:41:20.330Z,9.80
2018-03-16T11:43:49.668Z,9.80
2018-03-16T11:46:18.196Z,9.80
2018-03-16T11:48:45.791Z,9.80
2018-03-16T11:51:13.425Z,9.90
2018-03-16T11:53:41.651Z,9.80
2018-03-16T11:56:12.540Z,9.80
2018-03-16T11:58:40.017Z,9.70
2018-03-16T12:01:07.758Z,9.70
2018-03-16T12:03:35.446Z,9.70
2018-03-16T12:06:03.777Z,9.80
2018-03-16T12:08:34.586Z,9.80
2018-03-16T12:11:02.904Z,9.80
2018-03-16T12:13:30.366Z,9.80
2018-03-16T12:15:57.900Z,9.80
2018-03-16T12:18:25.778Z,9.70
2018-03-16T12:20:54.083Z,9.80
2018-03-16T12:23:21.623Z,9.80
2018-03-16T12:28:49.950Z,9.70
2018-03-16T12:31:14.630Z,9.70
2018-03-16T12:33:42.256Z,9.50
2018-03-16T12:36:09.939Z,9.40
2018-03-16T12:38:37.509Z,9.50
2018-03-16T12:41:05.010Z,9.30
2018-03-16T12:43:32.474Z,9.30
2018-03-16T12:45:59.936Z,9.50
2018-03-16T12:48:28.581Z,9.90
2018-03-16T12:50:56.822Z,10.00
2018-03-16T12:53:24.303Z,9.90
2018-03-16T12:55:51.777Z,10.00
2018-03-16T12:58:19.264Z,9.80
2018-03-16T13:00:47.319Z,9.90
2018-03-16T13:03:14.844Z,9.70
2018-03-16T13:05:42.334Z,9.70
2018-03-16T13:08:09.792Z,9.90
2018-03-16T13:10:37.266Z,10.00
2018-03-16T13:13:04.739Z,10.00
2018-03-16T13:15:32.994Z,10.50
2018-03-16T13:18:00.460Z,10.50
2018-03-16T13:20:27.998Z,10.60
2018-03-16T13:22:55.490Z,10.60
2018-03-16T13:25:23.016Z,10.70
2018-03-16T13:27:50.490Z,10.70
2018-03-16T13:30:17.981Z,10.50
2018-03-16T13:32:46.280Z,10.80
2018-03-16T13:35:13.765Z,10.80
2018-03-16T13:37:41.232Z,10.90
2018-03-16T13:40:08.766Z,10.90
2018-03-16T13:42:36.264Z,11.00
2018-03-16T13:45:03.769Z,10.90
2018-03-16T13:47:31.338Z,10.90
2018-03-16T13:49:58.889Z,10.70
2018-03-16T13:52:26.465Z,10.80
2018-03-16T13:54:53.948Z,10.60
2018-03-16T13:57:21.457Z,10.60
2018-03-16T13:59:49.142Z,10.40
2018-03-16T14:02:16.605Z,10.40
2018-03-16T14:04:44.088Z,10.20
2018-03-16T14:07:11.574Z,10.20
2018-03-16T14:09:39.082Z,10.20
2018-03-16T14:12:06.702Z,10.20
2018-03-16T14:14:34.207Z,10.40
2018-03-16T14:17:01.788Z,10.40
2018-03-16T14:19:29.528Z,10.50
2018-03-16T14:21:57.118Z,10.50
2018-03-16T14:24:24.641Z,10.60
2018-03-16T14:26:52.911Z,10.70
2018-03-16T14:29:20.435Z,10.90
2018-03-16T14:31:48.008Z,10.40
2018-03-16T14:34:16.584Z,10.00
2018-03-16T14:36:44.121Z,10.00
2018-03-16T14:39:11.848Z,10.10
2018-03-16T14:41:39.332Z,10.00
2018-03-16T14:44:08.650Z,9.80
2018-03-16T14:46:38.377Z,9.80
2018-03-16T14:49:09.587Z,9.60
2018-03-16T14:51:37.082Z,9.30
2018-03-16T14:54:04.601Z,9.30
2018-03-16T14:56:32.075Z,9.40
2018-03-16T14:58:59.550Z,9.40
2018-03-16T15:01:28.344Z,9.20
2018-03-16T15:03:58.182Z,9.00
2018-03-16T15:06:25.852Z,9.00
2018-03-16T15:08:53.377Z,8.90
2018-03-16T15:11:21.130Z,8.70
2018-03-16T15:13:48.736Z,8.70
2018-03-16T15:16:16.379Z,8.40
2018-03-16T15:18:44.129Z,8.40
2018-03-16T15:21:11.624Z,8.40
2018-03-16T15:23:39.111Z,8.20
2018-03-16T15:26:06.846Z,8.10
2018-03-16T15:28:35.486Z,8.10
2018-03-16T15:31:04.186Z,7.90
2018-03-16T15:33:31.776Z,7.90
2018-03-16T15:36:00.031Z,7.80
2018-03-16T15:38:28.648Z,7.80
2018-03-16T15:40:56.999Z,7.90
2018-03-16T15:43:29.218Z,7.90
2018-03-16T15:45:56.962Z,8.00
2018-03-16T15:48:24.415Z,8.00
2018-03-16T15:50:51.909Z,7.80
2018-03-16T15:53:20.192Z,7.40
2018-03-16T15:55:47.702Z,7.40
2018-03-16T15:58:15.182Z,7.40
2018-03-16T16:00:42.643Z,7.20
2018-03-16T16:03:15.918Z,7.20
2018-03-16T16:05:43.395Z,7.10
2018-03-16T16:08:11.063Z,7.10
2018-03-16T16:10:38.610Z,7.00
2018-03-16T16:13:06.108Z,7.00
2018-03-16T16:15:34.365Z,6.90
2018-03-16T16:18:02.652Z,6.90
2018-03-16T16:20:30.114Z,6.90
2018-03-16T16:22:58.362Z,6.80
2018-03-16T16:25:25.835Z,6.80
2018-03-16T16:27:53.339Z,6.60
2018-03-16T16:30:22.539Z,6.60
2018-03-16T16:32:50.109Z,6.50
2018-03-16T16:35:17.668Z,6.60
2018-03-16T16:37:45.164Z,6.50
2018-03-16T16:40:13.393Z,6.20
2018-03-16T16:42:41.157Z,6.20
2018-03-16T16:45:08.647Z,6.20
2018-03-16T16:47:36.106Z,6.10
2018-03-16T16:50:03.619Z,6.20
2018-03-16T16:52:31.845Z,6.10
2018-03-16T16:54:59.429Z,6.00
2018-03-16T16:57:27.604Z,6.00
2018-03-16T16:59:55.632Z,6.00
2018-03-16T17:02:23.300Z,5.90
2018-03-16T17:04:50.783Z,5.80
2018-03-16T17:07:18.270Z,5.80
2018-03-16T17:09:45.773Z,5.80
2018-03-16T17:12:13.297Z,5.70
2018-03-16T17:14:41.776Z,5.60
2018-03-16T17:17:10.021Z,5.60
2018-03-16T17:19:37.497Z,5.60
2018-03-16T17:22:05.015Z,5.60
2018-03-16T17:24:32.504Z,5.50
2018-03-16T17:27:00.718Z,5.40
2018-03-16T17:29:28.960Z,5.30
2018-03-16T17:31:56.453Z,5.30
2018-03-16T17:34:25.085Z,5.20
2018-03-16T17:36:53.236Z,5.10
2018-03-16T17:39:20.743Z,5.10
2018-03-16T17:41:48.550Z,5.10
2018-03-16T17:44:17.807Z,5.10
2018-03-16T17:46:47.346Z,4.90
2018-03-16T17:49:15.574Z,5.00
2018-03-16T17:51:43.063Z,4.90
2018-03-16T17:54:10.560Z,4.90
2018-03-16T17:56:38.055Z,4.80
2018-03-16T17:59:05.519Z,4.80
2018-03-16T18:01:33.230Z,4.80
2018-03-16T18:04:01.506Z,4.80
2018-03-16T18:06:30.243Z,4.50
2018-03-16T18:08:58.502Z,4.50
2018-03-16T18:11:26.720Z,4.50
2018-03-16T18:13:54.266Z,4.50
2018-03-16T18:16:21.739Z,4.50
2018-03-16T18:18:49.309Z,4.40
2018-03-16T18:21:17.555Z,4.50
2018-03-16T18:23:45.048Z,4.50
2018-03-16T18:26:12.528Z,4.50
2018-03-16T18:28:40.026Z,4.50
2018-03-16T18:31:07.506Z,4.40
2018-03-16T18:33:34.986Z,4.40
2018-03-16T18:36:03.236Z,4.30
2018-03-16T18:38:30.809Z,4.30
2018-03-16T18:40:58.312Z,4.30
2018-03-16T18:43:25.791Z,4.30
2018-03-16T18:45:53.288Z,4.30
2018-03-16T18:48:20.764Z,4.20
2018-03-16T18:50:49.013Z,4.30
2018-03-16T18:53:16.480Z,4.30
2018-03-16T18:55:43.999Z,4.30
2018-03-16T18:58:11.467Z,4.20
2018-03-16T19:00:38.979Z,4.30
2018-03-16T19:03:06.505Z,4.20
2018-03-16T19:05:33.982Z,4.20
2018-03-16T19:08:02.222Z,4.10
2018-03-16T19:10:29.686Z,4.00
2018-03-16T19:12:57.200Z,4.00
2018-03-16T19:15:24.686Z,4.00
2018-03-16T19:17:52.221Z,4.00
2018-03-16T19:20:19.745Z,4.00
2018-03-16T19:22:47.231Z,3.90
2018-03-16T19:25:15.486Z,3.80
2018-03-16T19:27:42.961Z,3.80
2018-03-16T19:30:11.207Z,3.70
2018-03-16T19:32:38.707Z,3.70
2018-03-16T19:35:06.959Z,3.60
2018-03-16T19:37:35.263Z,3.70
2018-03-16T19:40:02.761Z,3.60
2018-03-16T19:42:30.260Z,3.50
2018-03-16T19:44:58.538Z,3.40
2018-03-16T19:47:26.767Z,3.30
2018-03-16T19:49:54.270Z,3.30
2018-03-16T19:52:22.610Z,3.20
2018-03-16T19:54:50.086Z,3.20
2018-03-16T19:57:17.555Z,3.30
2018-03-16T19:59:45.025Z,3.30
2018-03-16T20:02:13.263Z,3.20
2018-03-16T20:04:40.740Z,3.20
2018-03-16T20:07:08.203Z,3.00
2018-03-16T20:09:35.678Z,3.00
2018-03-16T20:12:03.938Z,3.00
2018-03-16T20:14:31.414Z,3.00
2018-03-16T20:16:59.726Z,3.00
2018-03-16T20:19:27.246Z,2.90
2018-03-16T20:21:54.724Z,3.00
2018-03-16T20:24:23.086Z,2.90
2018-03-16T20:26:50.575Z,2.90
2018-03-16T20:29:18.166Z,2.90
2018-03-16T20:31:45.655Z,2.90
2018-03-16T20:34:13.126Z,2.80
2018-03-16T20:36:41.372Z,2.90
2018-03-16T20:39:08.841Z,2.80
2018-03-16T20:41:36.372Z,2.90
2018-03-16T20:44:03.873Z,2.80
2018-03-16T20:46:31.372Z,2.80
2018-03-16T20:48:58.845Z,2.70
2018-03-16T20:51:26.442Z,2.70
2018-03-16T20:53:53.920Z,2.70
2018-03-16T20:56:21.421Z,2.60
2018-03-16T20:58:48.949Z,2.60
2018-03-16T21:01:17.184Z,2.60
2018-03-16T21:03:44.677Z,2.50
2018-03-16T21:06:12.933Z,2.50
2018-03-16T21:08:40.402Z,2.50
2018-03-16T21:11:08.655Z,2.40
2018-03-16T21:13:36.123Z,2.40
2018-03-16T21:16:03.599Z,2.40
2018-03-16T21:18:31.865Z,2.30
2018-03-16T21:20:59.340Z,2.30
2018-03-16T21:23:27.640Z,2.30
2018-03-16T21:25:55.118Z,2.30
2018-03-16T21:28:22.614Z,2.30
2018-03-16T21:30:50.692Z,2.20
2018-03-16T21:33:18.288Z,2.20
2018-03-16T21:35:45.725Z,2.20
2018-03-16T21:38:14.081Z,2.10
2018-03-16T21:40:41.568Z,2.00
2018-03-16T21:43:09.843Z,2.00
2018-03-16T21:45:38.079Z,1.90
2018-03-16T21:48:05.561Z,1.90
2018-03-16T21:50:33.034Z,2.00
2018-03-16T21:53:01.279Z,1.90
2018-03-16T21:55:28.812Z,1.90
2018-03-16T21:57:56.275Z,1.90
2018-03-16T22:00:23.857Z,1.80
2018-03-16T22:02:54.121Z,1.90
2018-03-16T22:05:22.397Z,1.80
2018-03-16T22:07:51.779Z,1.80
2018-03-16T22:10:19.343Z,1.80
2018-03-16T22:12:46.818Z,1.80
2018-03-16T22:15:15.098Z,1.70
2018-03-16T22:17:42.562Z,1.70
2018-03-16T22:20:10.072Z,1.70
2018-03-16T22:22:37.646Z,1.70
2018-03-16T22:25:06.220Z,1.70
2018-03-16T22:27:33.787Z,1.60
2018-03-16T22:30:02.018Z,1.50
2018-03-16T22:32:29.621Z,1.50
2018-03-16T22:34:57.880Z,1.50
2018-03-16T22:37:25.395Z,1.50
2018-03-16T22:39:53.657Z,1.50
2018-03-16T22:42:21.154Z,1.50
2018-03-16T22:44:48.754Z,1.50
2018-03-16T22:47:16.227Z,1.40
2018-03-16T22:49:43.701Z,1.40
2018-03-16T22:52:11.947Z,1.40
2018-03-16T22:54:39.448Z,1.40
2018-03-16T22:57:06.950Z,1.40
2018-03-16T22:59:34.509Z,1.40
2018-03-16T23:02:01.977Z,1.30
2018-03-16T23:04:29.463Z,1.40
2018-03-16T23:06:56.935Z,1.40
2018-03-16T23:09:25.183Z,1.30
2018-03-16T23:11:52.871Z,1.30
2018-03-16T23:14:20.351Z,1.30
2018-03-16T23:16:47.815Z,1.30
2018-03-16T23:19:15.309Z,1.30
2018-03-16T23:21:42.820Z,1.20
2018-03-16T23:24:11.060Z,1.20
2018-03-16T23:26:38.550Z,1.30
2018-03-16T23:29:06.840Z,1.20
2018-03-16T23:31:34.321Z,1.20
2018-03-16T23:34:01.783Z,1.10
2018-03-16T23:36:29.286Z,1.10
2018-03-16T23:38:56.752Z,1.10
2018-03-16T23:41:24.224Z,1.10
2018-03-16T23:43:52.442Z,1.10
2018-03-16T23:46:20.060Z,1.10
2018-03-16T23:48:47.547Z,1.10
2018-03-16T23:51:15.034Z,1.00
2018-03-16T23:53:42.520Z,1.00
2018-03-16T23:56:10.006Z,1.00
2018-03-16T23:58:37.486Z,1.00
